Terminal Aerodrome Forecast
Issued by NWS

Home | Current Version | Previous Version | Text Only | Print | Product List | Glossary On
Versions: 1 2 3 4 5 6 7 8 9 10 11 12 13
322
FTUS43 KGRB 062329
TAFMTW
TAF
KMTW 062329Z 0700/0724 17011KT P6SM SCT120 SCT250
     FM070300 22008KT P6SM SCT120 BKN250 WS010/27035KT
     FM070800 35015G23KT P6SM BKN090
     FM071500 35011G18KT P6SM SCT050 SCT090
     FM072200 05008KT P6SM BKN090=

USA.gov is the U.S. government's official web portal to all federal, state and local government web resources and services.